sensor_id;sensor_type;location;lat;lon;timestamp;pressure;altitude;pressure_sealevel;temperature;humidity
20023;BME280;10172;42.054;24.546;2023-04-05T00:00:28;97514.59;;;5.74;100.00
20023;BME280;10172;42.054;24.546;2023-04-05T00:02:56;97516.78;;;5.67;100.00
20023;BME280;10172;42.054;24.546;2023-04-05T00:05:22;97513.22;;;5.38;100.00
20023;BME280;10172;42.054;24.546;2023-04-05T00:07:58;97514.84;;;5.55;100.00
20023;BME280;10172;42.054;24.546;2023-04-05T00:10:25;97512.31;;;5.54;100.00
20023;BME280;10172;42.054;24.546;2023-04-05T00:12:51;97514.88;;;5.69;100.00
20023;BME280;10172;42.054;24.546;2023-04-05T00:15:16;97533.03;;;5.46;100.00
20023;BME280;10172;42.054;24.546;2023-04-05T00:17:42;97526.53;;;5.51;100.00
20023;BME280;10172;42.054;24.546;2023-04-05T00:20:09;97516.91;;;5.50;100.00
20023;BME280;10172;42.054;24.546;2023-04-05T00:22:35;97521.94;;;5.69;100.00
20023;BME280;10172;42.054;24.546;2023-04-05T00:25:02;97519.97;;;5.72;100.00
20023;BME280;10172;42.054;24.546;2023-04-05T00:27:27;97528.50;;;5.48;100.00
20023;BME280;10172;42.054;24.546;2023-04-05T00:29:53;97510.69;;;5.37;100.00
20023;BME280;10172;42.054;24.546;2023-04-05T00:32:18;97528.81;;;5.71;100.00
20023;BME280;10172;42.054;24.546;2023-04-05T00:34:44;97527.53;;;5.78;100.00
20023;BME280;10172;42.054;24.546;2023-04-05T00:37:10;97527.97;;;5.57;100.00
20023;BME280;10172;42.054;24.546;2023-04-05T00:39:35;97536.69;;;5.43;100.00
20023;BME280;10172;42.054;24.546;2023-04-05T00:42:02;97535.69;;;5.30;100.00
20023;BME280;10172;42.054;24.546;2023-04-05T00:44:28;97528.19;;;5.38;100.00
20023;BME280;10172;42.054;24.546;2023-04-05T00:47:02;97538.56;;;5.41;100.00
20023;BME280;10172;42.054;24.546;2023-04-05T00:49:29;97528.16;;;5.54;100.00
20023;BME280;10172;42.054;24.546;2023-04-05T00:51:56;97525.16;;;5.30;100.00
20023;BME280;10172;42.054;24.546;2023-04-05T00:54:23;97543.31;;;5.50;100.00
20023;BME280;10172;42.054;24.546;2023-04-05T00:56:49;97535.53;;;5.33;100.00
20023;BME280;10172;42.054;24.546;2023-04-05T00:59:17;97537.94;;;5.22;100.00
20023;BME280;10172;42.054;24.546;2023-04-05T01:01:43;97524.75;;;5.66;100.00
20023;BME280;10172;42.054;24.546;2023-04-05T01:04:21;97538.94;;;5.35;100.00
20023;BME280;10172;42.054;24.546;2023-04-05T01:09:55;97540.16;;;5.29;100.00
20023;BME280;10172;42.054;24.546;2023-04-05T01:12:23;97535.66;;;5.46;100.00
20023;BME280;10172;42.054;24.546;2023-04-05T01:14:52;97544.34;;;5.18;100.00
20023;BME280;10172;42.054;24.546;2023-04-05T01:17:23;97550.47;;;5.48;100.00
20023;BME280;10172;42.054;24.546;2023-04-05T01:19:54;97554.59;;;5.22;100.00
20023;BME280;10172;42.054;24.546;2023-04-05T01:28:10;97541.91;;;5.88;100.00
20023;BME280;10172;42.054;24.546;2023-04-05T01:30:40;97550.59;;;6.19;100.00
20023;BME280;10172;42.054;24.546;2023-04-05T01:38:38;97546.91;;;5.63;100.00
20023;BME280;10172;42.054;24.546;2023-04-05T01:41:04;97549.03;;;5.13;100.00
20023;BME280;10172;42.054;24.546;2023-04-05T01:43:29;97553.06;;;5.34;100.00
20023;BME280;10172;42.054;24.546;2023-04-05T01:45:55;97542.31;;;5.07;100.00
20023;BME280;10172;42.054;24.546;2023-04-05T01:48:20;97553.34;;;5.14;100.00
20023;BME280;10172;42.054;24.546;2023-04-05T01:50:46;97547.31;;;5.12;100.00
20023;BME280;10172;42.054;24.546;2023-04-05T01:53:11;97557.75;;;4.83;100.00
20023;BME280;10172;42.054;24.546;2023-04-05T01:55:36;97543.78;;;4.81;100.00
20023;BME280;10172;42.054;24.546;2023-04-05T01:58:02;97559.31;;;5.17;100.00
20023;BME280;10172;42.054;24.546;2023-04-05T02:00:27;97554.91;;;5.02;100.00
20023;BME280;10172;42.054;24.546;2023-04-05T02:02:53;97559.34;;;5.02;100.00
20023;BME280;10172;42.054;24.546;2023-04-05T02:05:18;97569.63;;;5.36;100.00
20023;BME280;10172;42.054;24.546;2023-04-05T02:07:44;97560.50;;;5.12;100.00
20023;BME280;10172;42.054;24.546;2023-04-05T02:10:10;97559.66;;;5.41;100.00
20023;BME280;10172;42.054;24.546;2023-04-05T02:12:35;97563.06;;;5.13;100.00
20023;BME280;10172;42.054;24.546;2023-04-05T02:15:01;97575.41;;;4.81;100.00
20023;BME280;10172;42.054;24.546;2023-04-05T02:17:28;97569.47;;;4.94;100.00
20023;BME280;10172;42.054;24.546;2023-04-05T02:19:59;97567.88;;;5.21;100.00
20023;BME280;10172;42.054;24.546;2023-04-05T02:22:33;97552.06;;;4.75;100.00
20023;BME280;10172;42.054;24.546;2023-04-05T02:24:59;97561.41;;;4.81;100.00
20023;BME280;10172;42.054;24.546;2023-04-05T02:27:25;97573.81;;;4.95;100.00
20023;BME280;10172;42.054;24.546;2023-04-05T02:29:51;97574.31;;;4.86;100.00
20023;BME280;10172;42.054;24.546;2023-04-05T02:32:17;97574.22;;;4.87;100.00
20023;BME280;10172;42.054;24.546;2023-04-05T02:34:42;97579.19;;;5.23;100.00
20023;BME280;10172;42.054;24.546;2023-04-05T02:37:08;97582.28;;;5.15;100.00
20023;BME280;10172;42.054;24.546;2023-04-05T02:39:33;97572.66;;;5.14;100.00
20023;BME280;10172;42.054;24.546;2023-04-05T02:41:59;97584.78;;;5.03;100.00
20023;BME280;10172;42.054;24.546;2023-04-05T02:44:25;97585.13;;;4.81;100.00
20023;BME280;10172;42.054;24.546;2023-04-05T02:46:50;97570.31;;;4.78;100.00
20023;BME280;10172;42.054;24.546;2023-04-05T02:49:16;97572.00;;;4.79;100.00
20023;BME280;10172;42.054;24.546;2023-04-05T02:51:41;97580.88;;;4.94;100.00
20023;BME280;10172;42.054;24.546;2023-04-05T02:54:06;97566.25;;;4.89;100.00
20023;BME280;10172;42.054;24.546;2023-04-05T02:56:32;97574.91;;;4.91;100.00
20023;BME280;10172;42.054;24.546;2023-04-05T02:58:57;97578.78;;;5.74;100.00
20023;BME280;10172;42.054;24.546;2023-04-05T03:01:23;97577.09;;;5.43;100.00
20023;BME280;10172;42.054;24.546;2023-04-05T03:03:49;97584.28;;;5.26;100.00
20023;BME280;10172;42.054;24.546;2023-04-05T03:06:15;97584.03;;;5.30;100.00
20023;BME280;10172;42.054;24.546;2023-04-05T03:08:41;97591.38;;;5.10;100.00
20023;BME280;10172;42.054;24.546;2023-04-05T03:11:11;97583.63;;;5.52;100.00
20023;BME280;10172;42.054;24.546;2023-04-05T03:13:36;97590.56;;;5.39;100.00
20023;BME280;10172;42.054;24.546;2023-04-05T03:16:03;97599.56;;;5.05;100.00
20023;BME280;10172;42.054;24.546;2023-04-05T03:18:29;97577.44;;;5.08;100.00
20023;BME280;10172;42.054;24.546;2023-04-05T03:20:55;97580.91;;;5.24;100.00
20023;BME280;10172;42.054;24.546;2023-04-05T03:23:28;97599.72;;;5.48;100.00
20023;BME280;10172;42.054;24.546;2023-04-05T03:26:01;97589.69;;;5.98;100.00
20023;BME280;10172;42.054;24.546;2023-04-05T03:28:28;97602.44;;;5.01;100.00
20023;BME280;10172;42.054;24.546;2023-04-05T03:30:54;97595.00;;;5.23;100.00
20023;BME280;10172;42.054;24.546;2023-04-05T03:33:20;97587.63;;;5.14;100.00
20023;BME280;10172;42.054;24.546;2023-04-05T03:35:46;97590.03;;;5.03;100.00
20023;BME280;10172;42.054;24.546;2023-04-05T03:38:12;97596.84;;;5.66;100.00
20023;BME280;10172;42.054;24.546;2023-04-05T03:40:38;97597.50;;;5.10;100.00
20023;BME280;10172;42.054;24.546;2023-04-05T03:43:03;97597.00;;;5.49;100.00
20023;BME280;10172;42.054;24.546;2023-04-05T03:45:29;97596.75;;;5.68;100.00
20023;BME280;10172;42.054;24.546;2023-04-05T03:47:56;97595.16;;;6.09;100.00
20023;BME280;10172;42.054;24.546;2023-04-05T03:50:22;97595.25;;;5.34;100.00
20023;BME280;10172;42.054;24.546;2023-04-05T03:52:47;97595.53;;;5.73;100.00
20023;BME280;10172;42.054;24.546;2023-04-05T03:55:13;97587.22;;;5.51;100.00
20023;BME280;10172;42.054;24.546;2023-04-05T03:57:41;97606.56;;;5.95;100.00
20023;BME280;10172;42.054;24.546;2023-04-05T04:00:07;97602.44;;;5.91;100.00
20023;BME280;10172;42.054;24.546;2023-04-05T04:02:46;97612.50;;;5.69;100.00
20023;BME280;10172;42.054;24.546;2023-04-05T04:05:13;97611.09;;;5.18;100.00
20023;BME280;10172;42.054;24.546;2023-04-05T04:07:40;97608.63;;;5.15;100.00
20023;BME280;10172;42.054;24.546;2023-04-05T04:10:07;97623.69;;;5.29;100.00
20023;BME280;10172;42.054;24.546;2023-04-05T04:12:33;97607.16;;;5.25;100.00
20023;BME280;10172;42.054;24.546;2023-04-05T04:14:58;97616.19;;;5.06;100.00
20023;BME280;10172;42.054;24.546;2023-04-05T04:17:26;97620.81;;;4.87;100.00
20023;BME280;10172;42.054;24.546;2023-04-05T04:19:52;97609.06;;;4.76;100.00
20023;BME280;10172;42.054;24.546;2023-04-05T04:22:17;97619.00;;;4.71;100.00
20023;BME280;10172;42.054;24.546;2023-04-05T04:24:45;97617.13;;;4.73;100.00
20023;BME280;10172;42.054;24.546;2023-04-05T04:27:16;97628.78;;;4.54;100.00
20023;BME280;10172;42.054;24.546;2023-04-05T04:29:42;97633.19;;;4.53;100.00
20023;BME280;10172;42.054;24.546;2023-04-05T04:32:15;97631.53;;;4.83;100.00
20023;BME280;10172;42.054;24.546;2023-04-05T04:34:41;97642.13;;;4.66;100.00
20023;BME280;10172;42.054;24.546;2023-04-05T04:37:12;97635.84;;;4.84;100.00
20023;BME280;10172;42.054;24.546;2023-04-05T04:39:45;97642.41;;;4.77;100.00
20023;BME280;10172;42.054;24.546;2023-04-05T04:42:12;97634.72;;;4.57;100.00
20023;BME280;10172;42.054;24.546;2023-04-05T04:44:37;97644.44;;;4.72;100.00
20023;BME280;10172;42.054;24.546;2023-04-05T04:47:03;97653.97;;;4.75;100.00
20023;BME280;10172;42.054;24.546;2023-04-05T04:49:40;97654.63;;;4.78;100.00
20023;BME280;10172;42.054;24.546;2023-04-05T04:52:05;97654.13;;;4.72;100.00
20023;BME280;10172;42.054;24.546;2023-04-05T04:54:31;97651.00;;;4.97;100.00
20023;BME280;10172;42.054;24.546;2023-04-05T04:57:00;97656.50;;;4.76;100.00
20023;BME280;10172;42.054;24.546;2023-04-05T04:59:27;97660.72;;;4.63;100.00
20023;BME280;10172;42.054;24.546;2023-04-05T05:01:52;97651.97;;;4.78;100.00
20023;BME280;10172;42.054;24.546;2023-04-05T05:04:18;97668.75;;;4.77;100.00
20023;BME280;10172;42.054;24.546;2023-04-05T05:06:43;97665.34;;;4.75;100.00
20023;BME280;10172;42.054;24.546;2023-04-05T05:09:09;97675.66;;;4.96;100.00
20023;BME280;10172;42.054;24.546;2023-04-05T05:11:34;97665.97;;;4.96;100.00
20023;BME280;10172;42.054;24.546;2023-04-05T05:14:00;97670.09;;;4.84;100.00
20023;BME280;10172;42.054;24.546;2023-04-05T05:16:26;97677.63;;;5.08;100.00
20023;BME280;10172;42.054;24.546;2023-04-05T05:18:52;97671.81;;;5.01;100.00
20023;BME280;10172;42.054;24.546;2023-04-05T05:21:18;97674.03;;;5.09;100.00
20023;BME280;10172;42.054;24.546;2023-04-05T05:23:43;97671.97;;;4.82;100.00
20023;BME280;10172;42.054;24.546;2023-04-05T05:26:09;97680.41;;;5.20;100.00
20023;BME280;10172;42.054;24.546;2023-04-05T05:28:37;97665.03;;;5.13;100.00
20023;BME280;10172;42.054;24.546;2023-04-05T05:31:02;97686.25;;;5.41;100.00
20023;BME280;10172;42.054;24.546;2023-04-05T05:33:28;97668.25;;;5.18;100.00
20023;BME280;10172;42.054;24.546;2023-04-05T05:35:54;97685.94;;;5.31;100.00
20023;BME280;10172;42.054;24.546;2023-04-05T05:38:19;97681.94;;;4.93;100.00
20023;BME280;10172;42.054;24.546;2023-04-05T05:40:46;97689.34;;;5.18;100.00
20023;BME280;10172;42.054;24.546;2023-04-05T05:43:11;97684.84;;;4.89;100.00
20023;BME280;10172;42.054;24.546;2023-04-05T05:45:37;97673.09;;;5.25;100.00
20023;BME280;10172;42.054;24.546;2023-04-05T05:48:02;97689.34;;;5.18;100.00
20023;BME280;10172;42.054;24.546;2023-04-05T05:50:28;97682.19;;;5.35;100.00
20023;BME280;10172;42.054;24.546;2023-04-05T05:53:00;97677.28;;;5.29;100.00
20023;BME280;10172;42.054;24.546;2023-04-05T05:55:25;97688.16;;;5.23;100.00
20023;BME280;10172;42.054;24.546;2023-04-05T05:57:50;97674.97;;;5.08;100.00
20023;BME280;10172;42.054;24.546;2023-04-05T06:00:18;97686.03;;;5.14;100.00
20023;BME280;10172;42.054;24.546;2023-04-05T06:02:44;97682.00;;;5.38;100.00
20023;BME280;10172;42.054;24.546;2023-04-05T06:05:10;97679.91;;;5.29;100.00
20023;BME280;10172;42.054;24.546;2023-04-05T06:07:36;97698.38;;;5.29;100.00
20023;BME280;10172;42.054;24.546;2023-04-05T06:10:03;97680.50;;;5.19;100.00
20023;BME280;10172;42.054;24.546;2023-04-05T06:12:29;97704.31;;;5.49;100.00
20023;BME280;10172;42.054;24.546;2023-04-05T06:14:55;97697.84;;;5.38;99.78
20023;BME280;10172;42.054;24.546;2023-04-05T06:17:20;97690.88;;;5.22;100.00
20023;BME280;10172;42.054;24.546;2023-04-05T06:19:46;97693.06;;;5.45;100.00
20023;BME280;10172;42.054;24.546;2023-04-05T06:22:11;97702.13;;;5.71;98.94
20023;BME280;10172;42.054;24.546;2023-04-05T06:24:37;97694.94;;;5.27;100.00
20023;BME280;10172;42.054;24.546;2023-04-05T06:27:02;97706.50;;;5.56;99.87
20023;BME280;10172;42.054;24.546;2023-04-05T06:29:28;97699.22;;;5.46;98.90
20023;BME280;10172;42.054;24.546;2023-04-05T06:31:53;97706.00;;;5.34;100.00
20023;BME280;10172;42.054;24.546;2023-04-05T06:34:19;97707.72;;;5.35;99.97
20023;BME280;10172;42.054;24.546;2023-04-05T06:36:44;97705.97;;;5.65;100.00
20023;BME280;10172;42.054;24.546;2023-04-05T06:39:10;97710.06;;;5.55;97.92
20023;BME280;10172;42.054;24.546;2023-04-05T06:41:36;97721.56;;;5.23;100.00
20023;BME280;10172;42.054;24.546;2023-04-05T06:44:01;97722.50;;;5.22;99.19
20023;BME280;10172;42.054;24.546;2023-04-05T06:46:27;97710.59;;;5.30;100.00
20023;BME280;10172;42.054;24.546;2023-04-05T06:48:52;97715.34;;;5.55;98.93
20023;BME280;10172;42.054;24.546;2023-04-05T06:51:18;97716.72;;;5.31;97.92
20023;BME280;10172;42.054;24.546;2023-04-05T06:53:45;97728.63;;;5.38;98.29
20023;BME280;10172;42.054;24.546;2023-04-05T06:56:10;97724.72;;;5.45;97.92
20023;BME280;10172;42.054;24.546;2023-04-05T06:58:36;97719.47;;;5.29;99.75
20023;BME280;10172;42.054;24.546;2023-04-05T07:01:01;97737.03;;;5.60;97.89
20023;BME280;10172;42.054;24.546;2023-04-05T07:03:27;97733.56;;;5.60;96.30
20023;BME280;10172;42.054;24.546;2023-04-05T07:05:57;97740.03;;;5.85;97.08
20023;BME280;10172;42.054;24.546;2023-04-05T07:08:24;97729.66;;;5.67;95.76
20023;BME280;10172;42.054;24.546;2023-04-05T07:10:50;97745.56;;;5.65;96.82
20023;BME280;10172;42.054;24.546;2023-04-05T07:13:17;97750.91;;;5.79;95.53
20023;BME280;10172;42.054;24.546;2023-04-05T07:15:44;97750.50;;;5.71;95.97
20023;BME280;10172;42.054;24.546;2023-04-05T07:18:10;97749.22;;;5.63;96.85
20023;BME280;10172;42.054;24.546;2023-04-05T07:20:35;97754.84;;;5.72;96.62
20023;BME280;10172;42.054;24.546;2023-04-05T07:23:01;97758.00;;;5.94;96.10
20023;BME280;10172;42.054;24.546;2023-04-05T07:25:26;97764.53;;;5.87;96.67
20023;BME280;10172;42.054;24.546;2023-04-05T07:27:52;97753.47;;;5.65;96.42
20023;BME280;10172;42.054;24.546;2023-04-05T07:30:18;97758.50;;;5.70;96.72
20023;BME280;10172;42.054;24.546;2023-04-05T07:32:44;97764.03;;;5.81;95.34
20023;BME280;10172;42.054;24.546;2023-04-05T07:35:09;97757.22;;;5.92;93.82
20023;BME280;10172;42.054;24.546;2023-04-05T07:37:35;97759.16;;;6.05;95.08
20023;BME280;10172;42.054;24.546;2023-04-05T07:40:01;97760.97;;;5.88;94.47
20023;BME280;10172;42.054;24.546;2023-04-05T07:42:27;97754.84;;;5.88;93.95
20023;BME280;10172;42.054;24.546;2023-04-05T07:44:52;97764.13;;;6.25;94.06
20023;BME280;10172;42.054;24.546;2023-04-05T07:47:18;97770.69;;;6.47;94.58
20023;BME280;10172;42.054;24.546;2023-04-05T07:49:44;97769.31;;;6.26;91.87
20023;BME280;10172;42.054;24.546;2023-04-05T07:52:09;97775.59;;;6.10;93.24
20023;BME280;10172;42.054;24.546;2023-04-05T07:54:35;97776.25;;;6.43;91.39
20023;BME280;10172;42.054;24.546;2023-04-05T07:57:04;97792.34;;;6.54;90.91
20023;BME280;10172;42.054;24.546;2023-04-05T07:59:29;97786.84;;;6.57;91.83
20023;BME280;10172;42.054;24.546;2023-04-05T08:01:55;97777.38;;;6.39;92.33
20023;BME280;10172;42.054;24.546;2023-04-05T08:04:21;97790.09;;;6.62;90.18
20023;BME280;10172;42.054;24.546;2023-04-05T08:06:47;97786.44;;;6.49;90.56
20023;BME280;10172;42.054;24.546;2023-04-05T08:09:13;97787.59;;;6.45;90.55
20023;BME280;10172;42.054;24.546;2023-04-05T08:11:38;97793.84;;;6.58;92.67
20023;BME280;10172;42.054;24.546;2023-04-05T08:14:04;97793.13;;;6.70;90.64
20023;BME280;10172;42.054;24.546;2023-04-05T08:16:30;97795.16;;;6.51;91.52
20023;BME280;10172;42.054;24.546;2023-04-05T08:18:55;97787.34;;;6.34;89.67
20023;BME280;10172;42.054;24.546;2023-04-05T08:21:21;97792.13;;;6.57;89.90
20023;BME280;10172;42.054;24.546;2023-04-05T08:23:47;97797.38;;;6.73;89.00
20023;BME280;10172;42.054;24.546;2023-04-05T08:26:14;97799.53;;;6.80;89.38
20023;BME280;10172;42.054;24.546;2023-04-05T08:28:40;97797.00;;;6.49;90.29
20023;BME280;10172;42.054;24.546;2023-04-05T08:31:05;97798.47;;;6.69;89.78
20023;BME280;10172;42.054;24.546;2023-04-05T08:33:31;97806.56;;;7.09;88.88
20023;BME280;10172;42.054;24.546;2023-04-05T08:35:56;97798.97;;;6.75;87.65
20023;BME280;10172;42.054;24.546;2023-04-05T08:38:22;97789.81;;;6.67;89.28
20023;BME280;10172;42.054;24.546;2023-04-05T08:40:48;97810.19;;;6.65;87.87
20023;BME280;10172;42.054;24.546;2023-04-05T08:46:07;97816.50;;;6.62;88.82
20023;BME280;10172;42.054;24.546;2023-04-05T08:48:34;97818.69;;;6.70;87.00
20023;BME280;10172;42.054;24.546;2023-04-05T08:51:01;97817.47;;;6.75;88.77
20023;BME280;10172;42.054;24.546;2023-04-05T08:53:26;97818.84;;;6.52;88.09
20023;BME280;10172;42.054;24.546;2023-04-05T08:55:55;97826.69;;;6.68;87.94
20023;BME280;10172;42.054;24.546;2023-04-05T08:58:22;97822.34;;;6.97;86.94
20023;BME280;10172;42.054;24.546;2023-04-05T09:00:49;97836.22;;;7.14;85.94
20023;BME280;10172;42.054;24.546;2023-04-05T09:03:25;97833.38;;;6.89;87.77
20023;BME280;10172;42.054;24.546;2023-04-05T09:05:52;97836.06;;;6.74;88.70
20023;BME280;10172;42.054;24.546;2023-04-05T09:08:18;97844.44;;;6.66;87.60
20023;BME280;10172;42.054;24.546;2023-04-05T09:10:49;97846.50;;;6.61;86.29
20023;BME280;10172;42.054;24.546;2023-04-05T09:13:18;97838.66;;;6.89;85.99
20023;BME280;10172;42.054;24.546;2023-04-05T09:15:44;97852.38;;;6.66;86.67
20023;BME280;10172;42.054;24.546;2023-04-05T09:18:11;97839.50;;;6.76;87.15
20023;BME280;10172;42.054;24.546;2023-04-05T09:20:36;97847.50;;;6.74;87.15
20023;BME280;10172;42.054;24.546;2023-04-05T09:23:01;97855.47;;;6.88;87.62
20023;BME280;10172;42.054;24.546;2023-04-05T09:27:55;97842.31;;;6.87;87.88
20023;BME280;10172;42.054;24.546;2023-04-05T09:30:22;97844.16;;;6.71;88.41
20023;BME280;10172;42.054;24.546;2023-04-05T09:32:53;97845.31;;;6.67;88.57
20023;BME280;10172;42.054;24.546;2023-04-05T09:35:27;97841.94;;;6.49;88.90
20023;BME280;10172;42.054;24.546;2023-04-05T09:37:58;97839.22;;;6.94;89.73
20023;BME280;10172;42.054;24.546;2023-04-05T09:40:39;97845.47;;;7.36;88.02
20023;BME280;10172;42.054;24.546;2023-04-05T09:43:05;97846.88;;;6.99;89.75
20023;BME280;10172;42.054;24.546;2023-04-05T09:45:37;97848.63;;;6.84;89.37
20023;BME280;10172;42.054;24.546;2023-04-05T09:48:03;97854.84;;;6.69;87.64
20023;BME280;10172;42.054;24.546;2023-04-05T09:50:29;97849.78;;;6.50;87.80
20023;BME280;10172;42.054;24.546;2023-04-05T09:53:06;97840.28;;;6.92;86.15
20023;BME280;10172;42.054;24.546;2023-04-05T09:55:32;97844.94;;;6.73;88.02
20023;BME280;10172;42.054;24.546;2023-04-05T09:57:58;97844.91;;;7.02;88.45
20023;BME280;10172;42.054;24.546;2023-04-05T10:00:23;97843.31;;;7.00;88.51
20023;BME280;10172;42.054;24.546;2023-04-05T10:02:54;97848.34;;;6.75;87.68
20023;BME280;10172;42.054;24.546;2023-04-05T10:05:22;97842.19;;;6.74;88.57
20023;BME280;10172;42.054;24.546;2023-04-05T10:07:49;97847.13;;;6.80;89.32
20023;BME280;10172;42.054;24.546;2023-04-05T10:10:15;97842.91;;;7.06;89.70
20023;BME280;10172;42.054;24.546;2023-04-05T10:12:41;97846.22;;;6.95;89.00
20023;BME280;10172;42.054;24.546;2023-04-05T10:15:10;97837.81;;;6.89;90.74
20023;BME280;10172;42.054;24.546;2023-04-05T10:17:42;97852.41;;;7.24;88.00
20023;BME280;10172;42.054;24.546;2023-04-05T10:23:07;97847.28;;;7.07;89.09
20023;BME280;10172;42.054;24.546;2023-04-05T10:28:28;97850.34;;;6.85;90.41
20023;BME280;10172;42.054;24.546;2023-04-05T10:33:43;97849.38;;;6.72;94.47
20023;BME280;10172;42.054;24.546;2023-04-05T10:36:34;97845.41;;;6.79;95.13
20023;BME280;10172;42.054;24.546;2023-04-05T10:41:35;97841.69;;;7.11;92.36
20023;BME280;10172;42.054;24.546;2023-04-05T10:44:04;97835.47;;;7.27;93.02
20023;BME280;10172;42.054;24.546;2023-04-05T10:46:33;97840.19;;;7.50;86.77
20023;BME280;10172;42.054;24.546;2023-04-05T10:51:28;97838.09;;;7.55;89.41
20023;BME280;10172;42.054;24.546;2023-04-05T10:53:55;97843.78;;;7.35;91.64
20023;BME280;10172;42.054;24.546;2023-04-05T10:56:22;97840.72;;;7.83;90.16
20023;BME280;10172;42.054;24.546;2023-04-05T10:58:48;97836.78;;;7.62;90.36
20023;BME280;10172;42.054;24.546;2023-04-05T11:01:16;97836.09;;;7.72;91.05
20023;BME280;10172;42.054;24.546;2023-04-05T11:03:47;97845.66;;;7.04;91.46
20023;BME280;10172;42.054;24.546;2023-04-05T11:06:18;97840.09;;;7.23;91.12
20023;BME280;10172;42.054;24.546;2023-04-05T11:08:45;97852.41;;;6.80;92.02
20023;BME280;10172;42.054;24.546;2023-04-05T11:11:15;97848.84;;;6.81;91.43
20023;BME280;10172;42.054;24.546;2023-04-05T11:13:51;97836.38;;;6.83;92.53
20023;BME280;10172;42.054;24.546;2023-04-05T11:16:18;97840.53;;;6.87;92.23
20023;BME280;10172;42.054;24.546;2023-04-05T11:18:47;97840.19;;;7.07;91.13
20023;BME280;10172;42.054;24.546;2023-04-05T11:21:22;97844.31;;;6.83;94.18
20023;BME280;10172;42.054;24.546;2023-04-05T11:26:30;97849.47;;;7.43;93.97
20023;BME280;10172;42.054;24.546;2023-04-05T11:28:57;97859.09;;;7.30;94.31
20023;BME280;10172;42.054;24.546;2023-04-05T11:31:22;97846.69;;;7.02;94.48
20023;BME280;10172;42.054;24.546;2023-04-05T11:34:06;97854.72;;;7.71;95.00
20023;BME280;10172;42.054;24.546;2023-04-05T11:44:22;97827.81;;;7.08;93.70
20023;BME280;10172;42.054;24.546;2023-04-05T11:46:52;97839.81;;;7.13;91.96
20023;BME280;10172;42.054;24.546;2023-04-05T11:49:20;97853.59;;;7.61;90.34
20023;BME280;10172;42.054;24.546;2023-04-05T11:51:47;97851.81;;;7.33;89.28
20023;BME280;10172;42.054;24.546;2023-04-05T11:54:27;97849.25;;;6.89;93.30
20023;BME280;10172;42.054;24.546;2023-04-05T11:56:53;97849.19;;;7.19;95.71
20023;BME280;10172;42.054;24.546;2023-04-05T11:59:18;97857.88;;;7.21;95.07
20023;BME280;10172;42.054;24.546;2023-04-05T12:01:44;97848.69;;;6.69;100.00
20023;BME280;10172;42.054;24.546;2023-04-05T12:04:12;97848.81;;;6.67;100.00
20023;BME280;10172;42.054;24.546;2023-04-05T12:06:38;97836.31;;;6.99;100.00
20023;BME280;10172;42.054;24.546;2023-04-05T12:09:06;97846.59;;;7.03;100.00
20023;BME280;10172;42.054;24.546;2023-04-05T12:11:31;97822.81;;;7.32;100.00
20023;BME280;10172;42.054;24.546;2023-04-05T12:14:01;97839.03;;;7.11;99.00
20023;BME280;10172;42.054;24.546;2023-04-05T12:16:27;97836.97;;;7.45;97.10
20023;BME280;10172;42.054;24.546;2023-04-05T12:18:56;97837.91;;;7.01;95.78
20023;BME280;10172;42.054;24.546;2023-04-05T12:21:22;97850.88;;;6.76;97.73
20023;BME280;10172;42.054;24.546;2023-04-05T12:23:51;97850.72;;;6.79;99.44
20023;BME280;10172;42.054;24.546;2023-04-05T12:26:17;97845.59;;;6.76;100.00
20023;BME280;10172;42.054;24.546;2023-04-05T12:31:16;97844.31;;;6.83;100.00
20023;BME280;10172;42.054;24.546;2023-04-05T12:33:42;97846.03;;;6.98;100.00
20023;BME280;10172;42.054;24.546;2023-04-05T12:36:08;97833.16;;;6.92;100.00
20023;BME280;10172;42.054;24.546;2023-04-05T12:38:36;97838.00;;;7.28;100.00
20023;BME280;10172;42.054;24.546;2023-04-05T12:41:03;97840.78;;;7.27;95.54
20023;BME280;10172;42.054;24.546;2023-04-05T12:43:39;97841.16;;;6.77;99.15
20023;BME280;10172;42.054;24.546;2023-04-05T12:46:08;97844.81;;;7.04;93.97
20023;BME280;10172;42.054;24.546;2023-04-05T12:48:36;97838.59;;;7.19;91.46
20023;BME280;10172;42.054;24.546;2023-04-05T12:51:13;97843.59;;;7.23;93.36
20023;BME280;10172;42.054;24.546;2023-04-05T12:53:44;97848.78;;;6.97;93.02
20023;BME280;10172;42.054;24.546;2023-04-05T12:56:11;97847.53;;;7.16;91.12
20023;BME280;10172;42.054;24.546;2023-04-05T12:58:36;97855.09;;;7.08;92.42
20023;BME280;10172;42.054;24.546;2023-04-05T13:01:03;97850.31;;;7.29;91.95
20023;BME280;10172;42.054;24.546;2023-04-05T13:03:28;97840.00;;;7.67;90.18
20023;BME280;10172;42.054;24.546;2023-04-05T13:05:54;97850.97;;;7.61;88.49
20023;BME280;10172;42.054;24.546;2023-04-05T13:08:19;97845.88;;;7.30;89.11
20023;BME280;10172;42.054;24.546;2023-04-05T13:10:46;97847.00;;;7.40;91.71
20023;BME280;10172;42.054;24.546;2023-04-05T13:13:18;97849.53;;;7.41;88.87
20023;BME280;10172;42.054;24.546;2023-04-05T13:15:46;97854.00;;;7.27;90.12
20023;BME280;10172;42.054;24.546;2023-04-05T13:18:12;97836.72;;;7.21;90.12
20023;BME280;10172;42.054;24.546;2023-04-05T13:20:39;97851.41;;;7.81;87.43
20023;BME280;10172;42.054;24.546;2023-04-05T13:23:06;97851.75;;;7.49;87.50
20023;BME280;10172;42.054;24.546;2023-04-05T13:25:35;97845.16;;;7.82;88.93
20023;BME280;10172;42.054;24.546;2023-04-05T13:28:01;97856.81;;;7.23;87.60
20023;BME280;10172;42.054;24.546;2023-04-05T13:30:26;97843.13;;;7.45;88.54
20023;BME280;10172;42.054;24.546;2023-04-05T13:32:52;97843.59;;;7.52;88.82
20023;BME280;10172;42.054;24.546;2023-04-05T13:35:17;97853.22;;;7.81;86.94
20023;BME280;10172;42.054;24.546;2023-04-05T13:37:42;97844.34;;;7.54;88.32
20023;BME280;10172;42.054;24.546;2023-04-05T13:40:08;97848.88;;;7.52;86.91